Amalia — SXMT — position and weather

sailwx.info

Track history (hours):
 
Tides and Currents Weather Stations Pressure Air Temp Water Temp Dewpoint Dewpoint Depression Visibility Wind Speed Wind Dir Waves Ship Positions

Amalia

Last reported at 2016-Sep-01 04:33 UTC. Time now 2016-Sep-01 05:39 UTC.
Position S 30°55' E 041°24'.

Length 225 m; draft 13.2 m.

Type: Ship. MMSI: 239652000.

Date/timePositionNaut miles runAvg speedWind from/ knotsBaromVisibWave heightAir tempDewpointWater temp
2016-Sep-01 04:33S 30°55' E 041°24'4511.3
2016-Sep-01 00:33S 31°16' E 040°37'1611.6
2016-Aug-31 23:11S 31°23' E 040°20'2112.6
2016-Aug-31 21:29S 31°32' E 039°57'1613.5
2016-Aug-31 20:19S 31°38' E 039°41'7013.8
2016-Aug-31 15:14S 32°07' E 038°25'1013.5
2016-Aug-31 14:31S 32°11' E 038°15'1212.9
2016-Aug-31 13:33S 32°15' E 038°01'1312.6
2016-Aug-31 12:33S 32°21' E 037°48'1211.9
2016-Aug-31 11:33S 32°26' E 037°35'1211.9
2016-Aug-31 10:33S 32°30' E 037°22'1212.0
2016-Aug-31 09:33S 32°35' E 037°09'1212.2
2016-Aug-31 08:33S 32°40' E 036°56'1211.8
2016-Aug-31 07:33S 32°45' E 036°43'1211.6
2016-Aug-31 06:33S 32°49' E 036°30'1211.8
2016-Aug-31 05:33S 32°54' E 036°17'1212.1
2016-Aug-31 04:33S 32°59' E 036°04'1212.5
2016-Aug-31 03:33S 33°04' E 035°51'1212.2
2016-Aug-31 02:33S 33°09' E 035°37'1211.9
2016-Aug-31 01:33S 33°14' E 035°24'1211.7
2016-Aug-31 00:33S 33°19' E 035°11'1211.7
2016-Aug-30 23:33S 33°23' E 034°58'1211.7
2016-Aug-30 22:33S 33°28' E 034°45'1211.7
2016-Aug-30 21:33S 33°32' E 034°32'1211.8
2016-Aug-30 20:33S 33°36' E 034°19'1211.9
2016-Aug-30 19:33S 33°41' E 034°06'1211.8
2016-Aug-30 18:33S 33°45' E 033°53'1212.0
2016-Aug-30 17:33S 33°49' E 033°39'1512.0
2016-Aug-30 16:17S 33°55' E 033°22'911.8
2016-Aug-30 15:33S 33°58' E 033°12'1211.8
2016-Aug-30 14:33S 34°02' E 032°59'1212.1
2016-Aug-30 13:33S 34°07' E 032°46'1212.1
2016-Aug-30 12:33S 34°11' E 032°32'1212.4
2016-Aug-30 11:33S 34°16' E 032°18'1212.5
2016-Aug-30 10:33S 34°20' E 032°04'1212.3
2016-Aug-30 09:33S 34°25' E 031°50'1312.7
2016-Aug-30 08:33S 34°29' E 031°36'1212.2
2016-Aug-30 07:33S 34°34' E 031°22'1211.9
2016-Aug-30 06:33S 34°38' E 031°08'1212.0
2016-Aug-30 05:33S 34°42' E 030°55'1211.6
2016-Aug-30 04:31S 34°47' E 030°41'1111.4
2016-Aug-30 03:33S 34°51' E 030°29'1211.6
2016-Aug-30 02:33S 34°55' E 030°15'1211.5
2016-Aug-30 01:33S 34°59' E 030°02'1111.2
2016-Aug-30 00:33S 35°01' E 029°49'1111.5
2016-Aug-29 23:33S 35°01' E 029°35'1211.6
2016-Aug-29 22:33S 35°02' E 029°21'1211.7
2016-Aug-29 21:33S 35°03' E 029°06'1211.7
2016-Aug-29 20:33S 35°04' E 028°52'1611.3
2016-Aug-29 19:09S 35°04' E 028°33'711.5
2016-Aug-29 18:33S 35°05' E 028°24'1211.6
2016-Aug-29 17:33S 35°05' E 028°10'1211.3
2016-Aug-29 16:28S 35°06' E 027°55'  
Track history (hours):
 
Tides and Currents Weather Stations Pressure Air Temp Water Temp Dewpoint Dewpoint Depression Visibility Wind Speed Wind Dir Waves Ship Positions

Amalia

Last reported at 2016-Sep-01 04:33 UTC. Time now 2016-Sep-01 05:39 UTC.
Position S 30°55' E 041°24'.

Length 225 m; draft 13.2 m.

Type: Ship. MMSI: 239652000.

Date/timePositionNaut miles runAvg speedWind from/ knotsBaromVisibWave heightAir tempDewpointWater temp
2016-Sep-01 04:33S 30°55' E 041°24'4511.3
2016-Sep-01 00:33S 31°16' E 040°37'1611.6
2016-Aug-31 23:11S 31°23' E 040°20'2112.6
2016-Aug-31 21:29S 31°32' E 039°57'1613.5
2016-Aug-31 20:19S 31°38' E 039°41'7013.8
2016-Aug-31 15:14S 32°07' E 038°25'1013.5
2016-Aug-31 14:31S 32°11' E 038°15'1212.9
2016-Aug-31 13:33S 32°15' E 038°01'1312.6
2016-Aug-31 12:33S 32°21' E 037°48'1211.9
2016-Aug-31 11:33S 32°26' E 037°35'1211.9
2016-Aug-31 10:33S 32°30' E 037°22'1212.0
2016-Aug-31 09:33S 32°35' E 037°09'1212.2
2016-Aug-31 08:33S 32°40' E 036°56'1211.8
2016-Aug-31 07:33S 32°45' E 036°43'1211.6
2016-Aug-31 06:33S 32°49' E 036°30'1211.8
2016-Aug-31 05:33S 32°54' E 036°17'1212.1
2016-Aug-31 04:33S 32°59' E 036°04'1212.5
2016-Aug-31 03:33S 33°04' E 035°51'1212.2
2016-Aug-31 02:33S 33°09' E 035°37'1211.9
2016-Aug-31 01:33S 33°14' E 035°24'1211.7
2016-Aug-31 00:33S 33°19' E 035°11'1211.7
2016-Aug-30 23:33S 33°23' E 034°58'1211.7
2016-Aug-30 22:33S 33°28' E 034°45'1211.7
2016-Aug-30 21:33S 33°32' E 034°32'1211.8
2016-Aug-30 20:33S 33°36' E 034°19'1211.9
2016-Aug-30 19:33S 33°41' E 034°06'1211.8
2016-Aug-30 18:33S 33°45' E 033°53'1212.0
2016-Aug-30 17:33S 33°49' E 033°39'1512.0
2016-Aug-30 16:17S 33°55' E 033°22'911.8
2016-Aug-30 15:33S 33°58' E 033°12'1211.8
2016-Aug-30 14:33S 34°02' E 032°59'1212.1
2016-Aug-30 13:33S 34°07' E 032°46'1212.1
2016-Aug-30 12:33S 34°11' E 032°32'1212.4
2016-Aug-30 11:33S 34°16' E 032°18'1212.5
2016-Aug-30 10:33S 34°20' E 032°04'1212.3
2016-Aug-30 09:33S 34°25' E 031°50'1312.7
2016-Aug-30 08:33S 34°29' E 031°36'1212.2
2016-Aug-30 07:33S 34°34' E 031°22'1211.9
2016-Aug-30 06:33S 34°38' E 031°08'1212.0
2016-Aug-30 05:33S 34°42' E 030°55'1211.6
2016-Aug-30 04:31S 34°47' E 030°41'1111.4
2016-Aug-30 03:33S 34°51' E 030°29'1211.6
2016-Aug-30 02:33S 34°55' E 030°15'1211.5
2016-Aug-30 01:33S 34°59' E 030°02'1111.2
2016-Aug-30 00:33S 35°01' E 029°49'1111.5
2016-Aug-29 23:33S 35°01' E 029°35'1211.6
2016-Aug-29 22:33S 35°02' E 029°21'1211.7
2016-Aug-29 21:33S 35°03' E 029°06'1211.7
2016-Aug-29 20:33S 35°04' E 028°52'1611.3
2016-Aug-29 19:09S 35°04' E 028°33'711.5
2016-Aug-29 18:33S 35°05' E 028°24'1211.6
2016-Aug-29 17:33S 35°05' E 028°10'1211.3
2016-Aug-29 16:28S 35°06' E 027°55'  

Dump ship's entire track history